sensor_id;sensor_type;location;lat;lon;timestamp;temperature;humidity
48376;DHT22;34178;50.904;11.560;2023-02-01T00:01:44;5.70;99.90
48376;DHT22;34178;50.904;11.560;2023-02-01T00:04:09;5.60;99.90
48376;DHT22;34178;50.904;11.560;2023-02-01T00:06:35;5.60;99.90
48376;DHT22;34178;50.904;11.560;2023-02-01T00:09:01;5.60;99.90
48376;DHT22;34178;50.904;11.560;2023-02-01T00:11:27;5.60;99.90
48376;DHT22;34178;50.904;11.560;2023-02-01T00:13:53;5.50;99.90
48376;DHT22;34178;50.904;11.560;2023-02-01T00:16:21;5.60;99.90
48376;DHT22;34178;50.904;11.560;2023-02-01T00:18:49;5.50;99.90
48376;DHT22;34178;50.904;11.560;2023-02-01T00:21:17;5.50;99.90
48376;DHT22;34178;50.904;11.560;2023-02-01T00:23:43;5.40;99.90
48376;DHT22;34178;50.904;11.560;2023-02-01T00:26:21;5.40;99.90
48376;DHT22;34178;50.904;11.560;2023-02-01T00:28:48;5.40;99.90
48376;DHT22;34178;50.904;11.560;2023-02-01T00:31:13;5.40;99.90
48376;DHT22;34178;50.904;11.560;2023-02-01T00:33:40;5.40;99.90
48376;DHT22;34178;50.904;11.560;2023-02-01T00:36:07;5.40;99.90
48376;DHT22;34178;50.904;11.560;2023-02-01T00:38:34;5.50;99.90
48376;DHT22;34178;50.904;11.560;2023-02-01T00:41:11;5.50;99.90
48376;DHT22;34178;50.904;11.560;2023-02-01T00:43:37;5.50;99.90
48376;DHT22;34178;50.904;11.560;2023-02-01T00:46:03;5.40;99.90
48376;DHT22;34178;50.904;11.560;2023-02-01T00:48:29;5.40;99.90
48376;DHT22;34178;50.904;11.560;2023-02-01T00:51:02;5.40;99.90
48376;DHT22;34178;50.904;11.560;2023-02-01T00:53:28;5.40;99.90
48376;DHT22;34178;50.904;11.560;2023-02-01T00:55:54;5.40;99.90
48376;DHT22;34178;50.904;11.560;2023-02-01T00:58:20;5.40;99.90
48376;DHT22;34178;50.904;11.560;2023-02-01T01:00:46;5.40;99.90
48376;DHT22;34178;50.904;11.560;2023-02-01T01:03:12;5.40;99.90
48376;DHT22;34178;50.904;11.560;2023-02-01T01:05:48;5.30;99.90
48376;DHT22;34178;50.904;11.560;2023-02-01T01:08:14;5.40;99.90
48376;DHT22;34178;50.904;11.560;2023-02-01T01:10:41;5.30;99.90
48376;DHT22;34178;50.904;11.560;2023-02-01T01:13:07;5.40;99.90
48376;DHT22;34178;50.904;11.560;2023-02-01T01:15:37;5.40;99.90
48376;DHT22;34178;50.904;11.560;2023-02-01T01:18:03;5.30;99.90
48376;DHT22;34178;50.904;11.560;2023-02-01T01:20:29;5.30;99.90
48376;DHT22;34178;50.904;11.560;2023-02-01T01:22:54;5.40;99.90
48376;DHT22;34178;50.904;11.560;2023-02-01T01:25:20;5.30;99.90
48376;DHT22;34178;50.904;11.560;2023-02-01T01:27:46;5.40;99.90
48376;DHT22;34178;50.904;11.560;2023-02-01T01:30:12;5.30;99.90
48376;DHT22;34178;50.904;11.560;2023-02-01T01:32:38;5.30;99.90
48376;DHT22;34178;50.904;11.560;2023-02-01T01:35:04;5.20;99.90
48376;DHT22;34178;50.904;11.560;2023-02-01T01:37:29;5.20;99.90
48376;DHT22;34178;50.904;11.560;2023-02-01T01:39:55;5.20;99.90
48376;DHT22;34178;50.904;11.560;2023-02-01T01:42:22;5.20;99.90
48376;DHT22;34178;50.904;11.560;2023-02-01T01:47:45;5.20;99.90
48376;DHT22;34178;50.904;11.560;2023-02-01T01:50:15;5.20;99.90
48376;DHT22;34178;50.904;11.560;2023-02-01T01:52:46;5.20;99.90
48376;DHT22;34178;50.904;11.560;2023-02-01T01:55:17;5.20;99.90
48376;DHT22;34178;50.904;11.560;2023-02-01T01:57:48;5.20;99.90
48376;DHT22;34178;50.904;11.560;2023-02-01T02:00:17;5.30;99.90
48376;DHT22;34178;50.904;11.560;2023-02-01T02:02:46;5.30;99.90
48376;DHT22;34178;50.904;11.560;2023-02-01T02:05:13;5.30;99.90
48376;DHT22;34178;50.904;11.560;2023-02-01T02:07:43;5.30;99.90
48376;DHT22;34178;50.904;11.560;2023-02-01T02:10:12;5.30;99.90
48376;DHT22;34178;50.904;11.560;2023-02-01T02:12:42;5.40;99.90
48376;DHT22;34178;50.904;11.560;2023-02-01T02:15:12;5.40;99.90
48376;DHT22;34178;50.904;11.560;2023-02-01T02:20:43;5.30;99.90
48376;DHT22;34178;50.904;11.560;2023-02-01T02:23:18;5.30;99.90
48376;DHT22;34178;50.904;11.560;2023-02-01T02:29:15;5.30;99.90
48376;DHT22;34178;50.904;11.560;2023-02-01T02:34:57;5.30;99.90
48376;DHT22;34178;50.904;11.560;2023-02-01T02:37:50;5.20;99.90
48376;DHT22;34178;50.904;11.560;2023-02-01T02:45:47;5.20;99.90
48376;DHT22;34178;50.904;11.560;2023-02-01T02:48:47;5.30;99.90
48376;DHT22;34178;50.904;11.560;2023-02-01T02:54:34;5.20;99.90
48376;DHT22;34178;50.904;11.560;2023-02-01T02:57:37;5.20;99.90
48376;DHT22;34178;50.904;11.560;2023-02-01T03:00:29;5.20;99.90
48376;DHT22;34178;50.904;11.560;2023-02-01T03:03:14;5.20;99.90
48376;DHT22;34178;50.904;11.560;2023-02-01T03:05:59;5.10;99.90
48376;DHT22;34178;50.904;11.560;2023-02-01T03:08:29;5.10;99.90
48376;DHT22;34178;50.904;11.560;2023-02-01T03:18:55;5.00;99.90
48376;DHT22;34178;50.904;11.560;2023-02-01T03:21:26;5.00;99.90
48376;DHT22;34178;50.904;11.560;2023-02-01T03:23:55;5.00;99.90
48376;DHT22;34178;50.904;11.560;2023-02-01T03:26:25;5.00;99.90
48376;DHT22;34178;50.904;11.560;2023-02-01T03:28:56;5.00;99.90
48376;DHT22;34178;50.904;11.560;2023-02-01T03:31:23;5.00;99.90
48376;DHT22;34178;50.904;11.560;2023-02-01T03:33:50;5.00;99.90
48376;DHT22;34178;50.904;11.560;2023-02-01T03:36:57;4.90;99.90
48376;DHT22;34178;50.904;11.560;2023-02-01T03:42:06;5.00;99.90
48376;DHT22;34178;50.904;11.560;2023-02-01T03:44:39;5.10;99.90
48376;DHT22;34178;50.904;11.560;2023-02-01T03:47:19;5.10;99.90
48376;DHT22;34178;50.904;11.560;2023-02-01T03:49:58;5.10;99.90
48376;DHT22;34178;50.904;11.560;2023-02-01T03:52:36;5.10;99.90
48376;DHT22;34178;50.904;11.560;2023-02-01T03:55:05;5.10;99.90
48376;DHT22;34178;50.904;11.560;2023-02-01T03:57:33;5.10;99.90
48376;DHT22;34178;50.904;11.560;2023-02-01T04:00:18;5.10;99.90
48376;DHT22;34178;50.904;11.560;2023-02-01T04:02:44;5.10;99.90
48376;DHT22;34178;50.904;11.560;2023-02-01T04:05:10;5.10;99.90
48376;DHT22;34178;50.904;11.560;2023-02-01T04:07:37;5.10;99.90
48376;DHT22;34178;50.904;11.560;2023-02-01T04:10:03;5.10;99.90
48376;DHT22;34178;50.904;11.560;2023-02-01T04:12:29;5.10;99.90
48376;DHT22;34178;50.904;11.560;2023-02-01T04:14:54;5.00;99.90
48376;DHT22;34178;50.904;11.560;2023-02-01T04:17:21;5.00;99.90
48376;DHT22;34178;50.904;11.560;2023-02-01T04:19:46;5.00;99.90
48376;DHT22;34178;50.904;11.560;2023-02-01T04:22:12;5.10;99.90
48376;DHT22;34178;50.904;11.560;2023-02-01T04:24:38;5.10;99.90
48376;DHT22;34178;50.904;11.560;2023-02-01T04:27:04;5.10;99.90
48376;DHT22;34178;50.904;11.560;2023-02-01T04:29:29;5.10;99.90
48376;DHT22;34178;50.904;11.560;2023-02-01T04:31:55;5.10;99.90
48376;DHT22;34178;50.904;11.560;2023-02-01T04:34:21;5.10;99.90
48376;DHT22;34178;50.904;11.560;2023-02-01T04:36:48;5.10;99.90
48376;DHT22;34178;50.904;11.560;2023-02-01T04:39:14;5.10;99.90
48376;DHT22;34178;50.904;11.560;2023-02-01T04:41:39;5.10;99.90
48376;DHT22;34178;50.904;11.560;2023-02-01T04:44:05;5.00;99.90
48376;DHT22;34178;50.904;11.560;2023-02-01T04:46:31;5.00;99.90
48376;DHT22;34178;50.904;11.560;2023-02-01T04:48:57;5.00;99.90
48376;DHT22;34178;50.904;11.560;2023-02-01T04:51:22;5.00;99.90
48376;DHT22;34178;50.904;11.560;2023-02-01T04:53:48;4.90;99.90
48376;DHT22;34178;50.904;11.560;2023-02-01T04:56:14;4.90;99.90
48376;DHT22;34178;50.904;11.560;2023-02-01T04:58:39;4.90;99.90
48376;DHT22;34178;50.904;11.560;2023-02-01T05:01:06;4.90;99.90
48376;DHT22;34178;50.904;11.560;2023-02-01T05:03:33;4.90;99.90
48376;DHT22;34178;50.904;11.560;2023-02-01T05:05:59;4.90;99.90
48376;DHT22;34178;50.904;11.560;2023-02-01T05:08:25;4.90;99.90
48376;DHT22;34178;50.904;11.560;2023-02-01T05:10:52;4.80;99.90
48376;DHT22;34178;50.904;11.560;2023-02-01T05:13:18;4.80;99.90
48376;DHT22;34178;50.904;11.560;2023-02-01T05:16:02;4.80;99.90
48376;DHT22;34178;50.904;11.560;2023-02-01T05:18:27;4.80;99.90
48376;DHT22;34178;50.904;11.560;2023-02-01T05:20:53;4.80;99.90
48376;DHT22;34178;50.904;11.560;2023-02-01T05:23:19;4.80;99.90
48376;DHT22;34178;50.904;11.560;2023-02-01T05:25:44;4.80;99.90
48376;DHT22;34178;50.904;11.560;2023-02-01T05:28:10;4.80;99.90
48376;DHT22;34178;50.904;11.560;2023-02-01T05:30:36;4.80;99.90
48376;DHT22;34178;50.904;11.560;2023-02-01T05:33:02;4.80;99.90
48376;DHT22;34178;50.904;11.560;2023-02-01T05:35:28;4.70;99.90
48376;DHT22;34178;50.904;11.560;2023-02-01T05:37:54;4.70;99.90
48376;DHT22;34178;50.904;11.560;2023-02-01T05:40:19;4.70;99.90
48376;DHT22;34178;50.904;11.560;2023-02-01T05:42:46;4.70;99.90
48376;DHT22;34178;50.904;11.560;2023-02-01T05:45:11;4.70;99.90
48376;DHT22;34178;50.904;11.560;2023-02-01T05:47:37;4.70;99.90
48376;DHT22;34178;50.904;11.560;2023-02-01T05:50:04;4.80;99.90
48376;DHT22;34178;50.904;11.560;2023-02-01T05:52:30;4.90;99.90
48376;DHT22;34178;50.904;11.560;2023-02-01T05:54:56;4.90;99.90
48376;DHT22;34178;50.904;11.560;2023-02-01T05:57:22;4.90;99.90
48376;DHT22;34178;50.904;11.560;2023-02-01T05:59:47;4.90;99.90
48376;DHT22;34178;50.904;11.560;2023-02-01T06:02:14;5.00;99.90
48376;DHT22;34178;50.904;11.560;2023-02-01T06:04:40;4.90;99.90
48376;DHT22;34178;50.904;11.560;2023-02-01T06:07:07;4.90;99.90
48376;DHT22;34178;50.904;11.560;2023-02-01T06:09:35;4.80;99.90
48376;DHT22;34178;50.904;11.560;2023-02-01T06:12:00;4.70;99.90
48376;DHT22;34178;50.904;11.560;2023-02-01T06:14:26;4.60;99.90
48376;DHT22;34178;50.904;11.560;2023-02-01T06:16:53;4.60;99.90
48376;DHT22;34178;50.904;11.560;2023-02-01T06:19:20;4.60;99.90
48376;DHT22;34178;50.904;11.560;2023-02-01T06:21:45;4.60;99.90
48376;DHT22;34178;50.904;11.560;2023-02-01T06:24:12;4.70;99.90
48376;DHT22;34178;50.904;11.560;2023-02-01T06:26:38;4.80;99.90
48376;DHT22;34178;50.904;11.560;2023-02-01T06:29:05;4.90;99.90
48376;DHT22;34178;50.904;11.560;2023-02-01T06:31:32;5.00;99.90
48376;DHT22;34178;50.904;11.560;2023-02-01T06:33:58;5.00;99.90
48376;DHT22;34178;50.904;11.560;2023-02-01T06:36:24;5.10;99.90
48376;DHT22;34178;50.904;11.560;2023-02-01T06:38:49;5.10;99.90
48376;DHT22;34178;50.904;11.560;2023-02-01T06:41:16;5.20;99.90
48376;DHT22;34178;50.904;11.560;2023-02-01T06:43:42;5.20;99.90
48376;DHT22;34178;50.904;11.560;2023-02-01T06:46:12;5.20;99.90
48376;DHT22;34178;50.904;11.560;2023-02-01T06:48:38;5.20;99.90
48376;DHT22;34178;50.904;11.560;2023-02-01T06:51:04;5.30;99.90
48376;DHT22;34178;50.904;11.560;2023-02-01T06:53:31;5.20;99.90
48376;DHT22;34178;50.904;11.560;2023-02-01T06:55:59;5.20;99.90
48376;DHT22;34178;50.904;11.560;2023-02-01T06:58:32;5.20;99.90
48376;DHT22;34178;50.904;11.560;2023-02-01T07:01:04;5.10;99.90
48376;DHT22;34178;50.904;11.560;2023-02-01T07:03:29;5.20;99.90
48376;DHT22;34178;50.904;11.560;2023-02-01T07:05:56;5.20;99.90
48376;DHT22;34178;50.904;11.560;2023-02-01T07:08:27;5.20;99.90
48376;DHT22;34178;50.904;11.560;2023-02-01T07:10:53;5.20;99.90
48376;DHT22;34178;50.904;11.560;2023-02-01T07:13:19;5.20;99.90
48376;DHT22;34178;50.904;11.560;2023-02-01T07:15:44;5.20;99.90
48376;DHT22;34178;50.904;11.560;2023-02-01T07:18:13;5.20;99.90
48376;DHT22;34178;50.904;11.560;2023-02-01T07:20:40;5.20;99.90
48376;DHT22;34178;50.904;11.560;2023-02-01T07:23:06;5.20;99.90
48376;DHT22;34178;50.904;11.560;2023-02-01T07:25:31;5.20;99.90
48376;DHT22;34178;50.904;11.560;2023-02-01T07:27:57;5.20;99.90
48376;DHT22;34178;50.904;11.560;2023-02-01T07:30:23;5.30;99.90
48376;DHT22;34178;50.904;11.560;2023-02-01T07:32:49;5.40;99.90
48376;DHT22;34178;50.904;11.560;2023-02-01T07:35:15;5.50;99.90
48376;DHT22;34178;50.904;11.560;2023-02-01T07:37:40;5.60;99.90
48376;DHT22;34178;50.904;11.560;2023-02-01T07:40:06;5.70;99.90
48376;DHT22;34178;50.904;11.560;2023-02-01T07:42:33;5.70;99.90
48376;DHT22;34178;50.904;11.560;2023-02-01T07:44:59;5.70;99.90
48376;DHT22;34178;50.904;11.560;2023-02-01T07:47:24;5.70;99.90
48376;DHT22;34178;50.904;11.560;2023-02-01T07:49:50;5.70;99.90
48376;DHT22;34178;50.904;11.560;2023-02-01T07:52:16;5.70;99.90
48376;DHT22;34178;50.904;11.560;2023-02-01T07:54:42;5.70;99.90
48376;DHT22;34178;50.904;11.560;2023-02-01T07:57:08;5.80;99.90
48376;DHT22;34178;50.904;11.560;2023-02-01T07:59:34;5.80;99.90
48376;DHT22;34178;50.904;11.560;2023-02-01T08:02:00;5.80;99.90
48376;DHT22;34178;50.904;11.560;2023-02-01T08:04:26;5.80;99.90
48376;DHT22;34178;50.904;11.560;2023-02-01T08:06:52;5.70;99.90
48376;DHT22;34178;50.904;11.560;2023-02-01T08:09:17;5.70;99.90
48376;DHT22;34178;50.904;11.560;2023-02-01T08:11:43;5.70;99.90
48376;DHT22;34178;50.904;11.560;2023-02-01T08:14:09;5.70;99.90
48376;DHT22;34178;50.904;11.560;2023-02-01T08:16:34;5.70;99.90
48376;DHT22;34178;50.904;11.560;2023-02-01T08:19:02;5.70;99.90
48376;DHT22;34178;50.904;11.560;2023-02-01T08:21:29;5.70;99.90
48376;DHT22;34178;50.904;11.560;2023-02-01T08:24:09;5.70;99.90
48376;DHT22;34178;50.904;11.560;2023-02-01T08:26:35;5.80;99.90
48376;DHT22;34178;50.904;11.560;2023-02-01T08:29:03;5.80;99.90
48376;DHT22;34178;50.904;11.560;2023-02-01T08:31:30;5.90;99.90
48376;DHT22;34178;50.904;11.560;2023-02-01T08:33:58;5.90;99.90
48376;DHT22;34178;50.904;11.560;2023-02-01T08:36:25;6.00;99.90
48376;DHT22;34178;50.904;11.560;2023-02-01T08:38:51;6.00;99.90
48376;DHT22;34178;50.904;11.560;2023-02-01T08:41:19;6.00;99.90
48376;DHT22;34178;50.904;11.560;2023-02-01T08:43:45;5.90;99.90
48376;DHT22;34178;50.904;11.560;2023-02-01T08:46:11;5.90;99.90
48376;DHT22;34178;50.904;11.560;2023-02-01T08:48:38;5.90;99.90
48376;DHT22;34178;50.904;11.560;2023-02-01T08:51:05;5.80;99.90
48376;DHT22;34178;50.904;11.560;2023-02-01T08:53:32;5.70;99.90
48376;DHT22;34178;50.904;11.560;2023-02-01T08:55:58;5.70;99.90
48376;DHT22;34178;50.904;11.560;2023-02-01T08:58:24;5.70;99.90
48376;DHT22;34178;50.904;11.560;2023-02-01T09:00:49;5.70;99.90
48376;DHT22;34178;50.904;11.560;2023-02-01T09:03:15;5.60;99.90
48376;DHT22;34178;50.904;11.560;2023-02-01T09:05:41;5.60;99.90
48376;DHT22;34178;50.904;11.560;2023-02-01T09:08:07;5.70;99.90
48376;DHT22;34178;50.904;11.560;2023-02-01T09:10:33;5.80;99.90
48376;DHT22;34178;50.904;11.560;2023-02-01T09:12:59;5.80;99.90
48376;DHT22;34178;50.904;11.560;2023-02-01T09:15:24;5.80;99.90
48376;DHT22;34178;50.904;11.560;2023-02-01T09:17:50;5.90;99.90
48376;DHT22;34178;50.904;11.560;2023-02-01T09:20:16;5.90;99.90
48376;DHT22;34178;50.904;11.560;2023-02-01T09:22:42;5.90;99.90
48376;DHT22;34178;50.904;11.560;2023-02-01T09:25:08;6.00;99.90
48376;DHT22;34178;50.904;11.560;2023-02-01T09:27:34;6.10;99.90
48376;DHT22;34178;50.904;11.560;2023-02-01T09:30:00;6.30;99.90
48376;DHT22;34178;50.904;11.560;2023-02-01T09:32:25;6.30;99.90
48376;DHT22;34178;50.904;11.560;2023-02-01T09:34:52;6.40;99.90
48376;DHT22;34178;50.904;11.560;2023-02-01T09:37:18;6.30;99.90
48376;DHT22;34178;50.904;11.560;2023-02-01T09:39:44;6.30;99.90
48376;DHT22;34178;50.904;11.560;2023-02-01T09:47:34;6.70;99.90
48376;DHT22;34178;50.904;11.560;2023-02-01T09:50:12;6.60;99.90
48376;DHT22;34178;50.904;11.560;2023-02-01T09:53:06;6.50;99.90
48376;DHT22;34178;50.904;11.560;2023-02-01T09:55:38;6.60;99.90
48376;DHT22;34178;50.904;11.560;2023-02-01T10:00:39;6.90;99.90
48376;DHT22;34178;50.904;11.560;2023-02-01T10:03:11;7.00;99.90
48376;DHT22;34178;50.904;11.560;2023-02-01T10:09:06;7.00;99.90
48376;DHT22;34178;50.904;11.560;2023-02-01T10:14:06;7.10;99.90
48376;DHT22;34178;50.904;11.560;2023-02-01T10:22:39;6.70;99.90
48376;DHT22;34178;50.904;11.560;2023-02-01T10:24:47;6.70;99.90
48376;DHT22;34178;50.904;11.560;2023-02-01T10:27:30;6.80;99.90
48376;DHT22;34178;50.904;11.560;2023-02-01T10:30:01;6.90;99.90
48376;DHT22;34178;50.904;11.560;2023-02-01T10:32:34;6.80;99.90
48376;DHT22;34178;50.904;11.560;2023-02-01T10:35:12;6.80;99.90
48376;DHT22;34178;50.904;11.560;2023-02-01T10:37:41;6.90;99.90
48376;DHT22;34178;50.904;11.560;2023-02-01T10:40:17;7.00;99.90
48376;DHT22;34178;50.904;11.560;2023-02-01T10:42:45;7.00;99.90
48376;DHT22;34178;50.904;11.560;2023-02-01T10:45:19;7.10;99.90
48376;DHT22;34178;50.904;11.560;2023-02-01T10:47:48;7.10;99.90
48376;DHT22;34178;50.904;11.560;2023-02-01T10:50:29;7.30;99.90
48376;DHT22;34178;50.904;11.560;2023-02-01T10:53:17;7.30;99.90
48376;DHT22;34178;50.904;11.560;2023-02-01T10:55:48;7.60;99.90
48376;DHT22;34178;50.904;11.560;2023-02-01T10:58:29;7.60;99.90
48376;DHT22;34178;50.904;11.560;2023-02-01T11:05:55;7.70;99.90
48376;DHT22;34178;50.904;11.560;2023-02-01T11:08:21;7.70;99.90
48376;DHT22;34178;50.904;11.560;2023-02-01T11:10:47;7.70;99.90
48376;DHT22;34178;50.904;11.560;2023-02-01T11:13:29;7.80;99.90
48376;DHT22;34178;50.904;11.560;2023-02-01T11:15:56;7.80;99.90
48376;DHT22;34178;50.904;11.560;2023-02-01T11:18:28;7.80;99.90
48376;DHT22;34178;50.904;11.560;2023-02-01T11:20:54;7.80;99.90
48376;DHT22;34178;50.904;11.560;2023-02-01T11:23:25;7.90;99.90
48376;DHT22;34178;50.904;11.560;2023-02-01T11:25:59;8.00;99.80
48376;DHT22;34178;50.904;11.560;2023-02-01T11:28:31;7.90;99.30
48376;DHT22;34178;50.904;11.560;2023-02-01T11:31:02;8.10;99.50
48376;DHT22;34178;50.904;11.560;2023-02-01T11:33:32;8.00;99.20
48376;DHT22;34178;50.904;11.560;2023-02-01T11:36:07;8.00;99.00
48376;DHT22;34178;50.904;11.560;2023-02-01T11:38:34;8.00;98.70
48376;DHT22;34178;50.904;11.560;2023-02-01T11:41:40;7.90;99.00
48376;DHT22;34178;50.904;11.560;2023-02-01T11:44:20;7.90;99.00
48376;DHT22;34178;50.904;11.560;2023-02-01T11:46:47;7.90;99.00
48376;DHT22;34178;50.904;11.560;2023-02-01T11:49:20;7.90;99.00
48376;DHT22;34178;50.904;11.560;2023-02-01T11:59:57;7.90;99.20
48376;DHT22;34178;50.904;11.560;2023-02-01T12:02:41;7.90;99.30
48376;DHT22;34178;50.904;11.560;2023-02-01T12:08:30;8.20;99.30
48376;DHT22;34178;50.904;11.560;2023-02-01T12:22:23;7.90;99.00
48376;DHT22;34178;50.904;11.560;2023-02-01T12:46:41;7.50;99.90
48376;DHT22;34178;50.904;11.560;2023-02-01T12:52:44;7.50;99.90
48376;DHT22;34178;50.904;11.560;2023-02-01T12:57:47;7.40;99.90
48376;DHT22;34178;50.904;11.560;2023-02-01T13:00:38;7.40;99.90
48376;DHT22;34178;50.904;11.560;2023-02-01T13:08:25;7.20;99.90
48376;DHT22;34178;50.904;11.560;2023-02-01T13:11:00;7.20;99.90
48376;DHT22;34178;50.904;11.560;2023-02-01T13:13:35;7.30;99.90
48376;DHT22;34178;50.904;11.560;2023-02-01T13:16:47;7.30;99.90
48376;DHT22;34178;50.904;11.560;2023-02-01T13:22:02;7.20;99.90
48376;DHT22;34178;50.904;11.560;2023-02-01T13:24:41;7.00;99.90
48376;DHT22;34178;50.904;11.560;2023-02-01T13:27:14;7.00;99.90
48376;DHT22;34178;50.904;11.560;2023-02-01T13:29:50;6.90;99.90
48376;DHT22;34178;50.904;11.560;2023-02-01T13:35:43;6.90;99.90
48376;DHT22;34178;50.904;11.560;2023-02-01T13:43:40;6.80;99.90
48376;DHT22;34178;50.904;11.560;2023-02-01T13:46:10;6.80;99.90
48376;DHT22;34178;50.904;11.560;2023-02-01T13:48:58;6.80;99.90
48376;DHT22;34178;50.904;11.560;2023-02-01T13:51:45;6.80;99.90
48376;DHT22;34178;50.904;11.560;2023-02-01T13:54:36;6.80;99.90
48376;DHT22;34178;50.904;11.560;2023-02-01T13:57:05;6.80;99.90
48376;DHT22;34178;50.904;11.560;2023-02-01T14:08:20;7.40;99.50
48376;DHT22;34178;50.904;11.560;2023-02-01T14:10:58;7.60;99.30
48376;DHT22;34178;50.904;11.560;2023-02-01T14:21:31;7.60;99.20
48376;DHT22;34178;50.904;11.560;2023-02-01T14:36:46;7.10;99.60
48376;DHT22;34178;50.904;11.560;2023-02-01T14:39:21;7.00;99.60
48376;DHT22;34178;50.904;11.560;2023-02-01T14:41:52;7.00;99.60
48376;DHT22;34178;50.904;11.560;2023-02-01T14:44:26;7.00;99.60
48376;DHT22;34178;50.904;11.560;2023-02-01T14:49:56;7.00;99.50
48376;DHT22;34178;50.904;11.560;2023-02-01T14:52:20;7.00;99.50
48376;DHT22;34178;50.904;11.560;2023-02-01T14:54:53;7.00;99.50
48376;DHT22;34178;50.904;11.560;2023-02-01T14:57:21;7.10;99.20
48376;DHT22;34178;50.904;11.560;2023-02-01T14:59:49;7.20;99.10
48376;DHT22;34178;50.904;11.560;2023-02-01T15:02:23;7.20;99.20
48376;DHT22;34178;50.904;11.560;2023-02-01T15:04:55;7.10;99.30
48376;DHT22;34178;50.904;11.560;2023-02-01T15:07:22;7.00;99.30
48376;DHT22;34178;50.904;11.560;2023-02-01T15:09:50;7.00;99.30
48376;DHT22;34178;50.904;11.560;2023-02-01T15:12:19;6.90;99.30
48376;DHT22;34178;50.904;11.560;2023-02-01T15:17:38;6.80;99.40
48376;DHT22;34178;50.904;11.560;2023-02-01T15:20:15;6.80;99.50
48376;DHT22;34178;50.904;11.560;2023-02-01T15:22:42;6.70;99.60
48376;DHT22;34178;50.904;11.560;2023-02-01T15:25:21;6.70;99.60
48376;DHT22;34178;50.904;11.560;2023-02-01T15:27:47;6.70;99.70
48376;DHT22;34178;50.904;11.560;2023-02-01T15:30:22;6.80;99.80
48376;DHT22;34178;50.904;11.560;2023-02-01T15:32:49;6.70;99.90
48376;DHT22;34178;50.904;11.560;2023-02-01T15:35:42;6.60;99.90
48376;DHT22;34178;50.904;11.560;2023-02-01T15:46:08;6.40;99.90
48376;DHT22;34178;50.904;11.560;2023-02-01T15:48:44;6.40;99.90
48376;DHT22;34178;50.904;11.560;2023-02-01T15:51:15;6.40;99.90
48376;DHT22;34178;50.904;11.560;2023-02-01T15:53:51;6.40;99.90
48376;DHT22;34178;50.904;11.560;2023-02-01T15:56:27;6.40;99.90
48376;DHT22;34178;50.904;11.560;2023-02-01T15:58:56;6.40;99.90
48376;DHT22;34178;50.904;11.560;2023-02-01T16:01:23;6.40;99.90
48376;DHT22;34178;50.904;11.560;2023-02-01T16:03:54;6.50;99.90
48376;DHT22;34178;50.904;11.560;2023-02-01T16:06:30;6.50;99.90
48376;DHT22;34178;50.904;11.560;2023-02-01T16:11:30;6.50;99.90
48376;DHT22;34178;50.904;11.560;2023-02-01T16:13:57;6.40;99.90
48376;DHT22;34178;50.904;11.560;2023-02-01T16:16:24;6.40;99.90
48376;DHT22;34178;50.904;11.560;2023-02-01T16:18:50;6.40;99.90
48376;DHT22;34178;50.904;11.560;2023-02-01T16:21:15;6.40;99.90
48376;DHT22;34178;50.904;11.560;2023-02-01T16:23:41;6.40;99.90
48376;DHT22;34178;50.904;11.560;2023-02-01T16:26:07;6.40;99.90
48376;DHT22;34178;50.904;11.560;2023-02-01T16:28:32;6.40;99.90
48376;DHT22;34178;50.904;11.560;2023-02-01T16:30:59;6.50;99.90
48376;DHT22;34178;50.904;11.560;2023-02-01T16:33:25;6.50;99.90
48376;DHT22;34178;50.904;11.560;2023-02-01T16:35:52;6.50;99.90
48376;DHT22;34178;50.904;11.560;2023-02-01T16:38:22;6.50;99.90
48376;DHT22;34178;50.904;11.560;2023-02-01T16:40:49;6.60;99.90
48376;DHT22;34178;50.904;11.560;2023-02-01T16:43:17;6.60;99.90
48376;DHT22;34178;50.904;11.560;2023-02-01T16:45:45;6.60;99.90
48376;DHT22;34178;50.904;11.560;2023-02-01T16:50:47;6.70;99.90
48376;DHT22;34178;50.904;11.560;2023-02-01T16:53:17;6.70;99.90
48376;DHT22;34178;50.904;11.560;2023-02-01T16:55:43;6.70;99.90
48376;DHT22;34178;50.904;11.560;2023-02-01T16:58:09;6.60;99.90
48376;DHT22;34178;50.904;11.560;2023-02-01T17:00:35;6.50;99.90
48376;DHT22;34178;50.904;11.560;2023-02-01T17:03:04;6.20;99.90
48376;DHT22;34178;50.904;11.560;2023-02-01T17:05:32;4.70;99.90
48376;DHT22;34178;50.904;11.560;2023-02-01T17:08:02;3.30;99.90
48376;DHT22;34178;50.904;11.560;2023-02-01T17:10:31;2.80;99.90
48376;DHT22;34178;50.904;11.560;2023-02-01T17:12:57;2.60;99.90
48376;DHT22;34178;50.904;11.560;2023-02-01T17:15:24;2.50;99.90
48376;DHT22;34178;50.904;11.560;2023-02-01T17:17:51;2.60;99.90
48376;DHT22;34178;50.904;11.560;2023-02-01T17:20:22;2.60;99.90
48376;DHT22;34178;50.904;11.560;2023-02-01T17:22:49;2.60;99.90
48376;DHT22;34178;50.904;11.560;2023-02-01T17:25:20;2.40;99.90
48376;DHT22;34178;50.904;11.560;2023-02-01T17:27:47;2.30;99.90
48376;DHT22;34178;50.904;11.560;2023-02-01T17:30:13;2.10;99.90
48376;DHT22;34178;50.904;11.560;2023-02-01T17:32:39;2.30;99.90
48376;DHT22;34178;50.904;11.560;2023-02-01T17:35:21;2.30;99.90
48376;DHT22;34178;50.904;11.560;2023-02-01T17:37:48;2.20;99.90
48376;DHT22;34178;50.904;11.560;2023-02-01T17:40:14;2.10;99.90
48376;DHT22;34178;50.904;11.560;2023-02-01T17:42:40;2.20;99.90
48376;DHT22;34178;50.904;11.560;2023-02-01T17:47:45;2.10;99.90
48376;DHT22;34178;50.904;11.560;2023-02-01T17:50:12;2.10;99.90
48376;DHT22;34178;50.904;11.560;2023-02-01T17:52:38;2.20;99.90
48376;DHT22;34178;50.904;11.560;2023-02-01T17:55:18;2.30;99.90
48376;DHT22;34178;50.904;11.560;2023-02-01T17:57:46;2.40;99.90
48376;DHT22;34178;50.904;11.560;2023-02-01T18:00:12;2.50;99.90
48376;DHT22;34178;50.904;11.560;2023-02-01T18:02:39;2.50;99.90
48376;DHT22;34178;50.904;11.560;2023-02-01T18:05:19;2.50;99.90
48376;DHT22;34178;50.904;11.560;2023-02-01T18:07:46;2.50;99.90
48376;DHT22;34178;50.904;11.560;2023-02-01T18:10:12;2.60;99.90
48376;DHT22;34178;50.904;11.560;2023-02-01T18:12:38;2.60;99.90
48376;DHT22;34178;50.904;11.560;2023-02-01T18:15:24;2.70;99.90
48376;DHT22;34178;50.904;11.560;2023-02-01T18:17:50;2.80;99.90
48376;DHT22;34178;50.904;11.560;2023-02-01T18:20:21;2.80;99.90
48376;DHT22;34178;50.904;11.560;2023-02-01T18:22:47;2.90;99.90
48376;DHT22;34178;50.904;11.560;2023-02-01T18:25:25;3.00;99.90
48376;DHT22;34178;50.904;11.560;2023-02-01T18:27:53;3.00;99.90
48376;DHT22;34178;50.904;11.560;2023-02-01T18:30:21;3.00;99.90
48376;DHT22;34178;50.904;11.560;2023-02-01T18:32:48;3.00;99.90
48376;DHT22;34178;50.904;11.560;2023-02-01T18:35:22;3.00;99.90
48376;DHT22;34178;50.904;11.560;2023-02-01T18:37:49;3.10;99.90
48376;DHT22;34178;50.904;11.560;2023-02-01T18:40:21;3.00;99.90